Time;durP1;ratioP1;P1;durP2;ratioP2;P2;SDS_P1;SDS_P2;PMS_P1;PMS_P2;Temp;Humidity;BMP_temperature;BMP_pressure;BME280_temperature;BME280_humidity;BME280_pressure;Samples;Min_cycle;Max_cycle;Signal;HPM_P1;HPM_P2
2022/11/17 00:01:06;;;;;;;26.27;16.05;;;8.60;99.90;;;;;;5071692;28;20118;-73
2022/11/17 00:03:31;;;;;;;21.23;15.73;;;8.50;99.90;;;;;;5069820;28;20044;-72
2022/11/17 00:06:04;;;;;;;20.92;16.60;;;8.70;99.90;;;;;;5071443;28;20071;-72
2022/11/17 00:08:31;;;;;;;20.63;16.23;;;8.50;99.90;;;;;;5070340;28;20486;-72
2022/11/17 00:11:00;;;;;;;23.67;17.30;;;8.70;99.90;;;;;;5070372;28;20036;-72
2022/11/17 00:16:14;;;;;;;19.52;15.48;;;8.60;99.90;;;;;;5071425;28;20055;-72
2022/11/17 00:21:25;;;;;;;18.38;15.02;;;8.50;99.90;;;;;;5070005;28;20421;-73
2022/11/17 00:23:52;;;;;;;22.55;17.30;;;8.60;99.90;;;;;;5070052;28;20043;-72
2022/11/17 00:26:26;;;;;;;23.73;15.73;;;8.50;99.90;;;;;;5070194;28;20094;-73
2022/11/17 00:28:57;;;;;;;18.85;14.35;;;8.50;99.90;;;;;;5071359;28;20040;-73
2022/11/17 00:34:21;;;;;;;19.48;14.77;;;8.60;99.90;;;;;;5070057;28;20452;-73
2022/11/17 00:36:49;;;;;;;20.70;15.35;;;8.60;99.90;;;;;;5070108;28;20040;-72
2022/11/17 00:39:16;;;;;;;20.95;13.90;;;8.50;99.90;;;;;;5071245;28;20379;-72
2022/11/17 00:41:42;;;;;;;18.67;14.82;;;8.50;99.90;;;;;;5069890;28;20516;-73
2022/11/17 00:44:08;;;;;;;17.23;14.23;;;8.60;99.90;;;;;;5073710;28;20036;-72
2022/11/17 00:46:36;;;;;;;17.42;12.77;;;8.60;99.90;;;;;;5073937;28;20379;-73
2022/11/17 00:49:01;;;;;;;17.23;12.95;;;8.50;99.90;;;;;;5073911;28;20182;-72
2022/11/17 00:51:27;;;;;;;16.52;13.23;;;8.60;99.90;;;;;;5073768;28;20506;-72
2022/11/17 00:53:53;;;;;;;16.65;14.05;;;8.70;99.90;;;;;;5074721;28;20379;-72
2022/11/17 00:56:18;;;;;;;15.43;12.75;;;8.70;99.90;;;;;;5073939;28;20143;-72
2022/11/17 00:58:44;;;;;;;15.18;12.23;;;8.50;99.90;;;;;;5073920;28;20094;-72
2022/11/17 01:01:10;;;;;;;18.35;12.50;;;8.50;99.90;;;;;;5075001;28;20090;-72
2022/11/17 01:03:36;;;;;;;18.50;13.40;;;8.50;99.90;;;;;;5073108;28;20044;-73
2022/11/17 01:06:10;;;;;;;17.35;13.18;;;8.50;99.90;;;;;;5073993;28;20068;-72
2022/11/17 01:08:36;;;;;;;16.17;12.98;;;8.60;99.90;;;;;;5073682;28;20040;-72
2022/11/17 01:11:16;;;;;;;17.73;13.02;;;8.60;99.90;;;;;;5073465;28;20078;-72
2022/11/17 01:13:43;;;;;;;17.65;13.73;;;8.50;99.90;;;;;;5073396;28;20063;-72
2022/11/17 01:16:17;;;;;;;17.55;13.55;;;8.60;99.90;;;;;;5073310;28;20040;-72
2022/11/17 01:18:44;;;;;;;17.33;12.68;;;8.60;99.90;;;;;;5073622;28;20099;-72
2022/11/17 01:21:21;;;;;;;16.08;13.93;;;8.50;99.90;;;;;;5074797;28;20043;-73
2022/11/17 01:23:50;;;;;;;18.67;13.88;;;8.40;99.90;;;;;;5072953;28;20486;-73
2022/11/17 01:26:21;;;;;;;15.20;12.88;;;8.50;99.90;;;;;;5073202;28;20529;-73
2022/11/17 01:28:47;;;;;;;16.98;13.00;;;8.30;99.90;;;;;;5073353;28;20408;-72
2022/11/17 01:31:16;;;;;;;14.60;12.27;;;8.40;99.90;;;;;;5073172;28;20123;-73
2022/11/17 01:33:42;;;;;;;17.00;13.82;;;8.30;99.90;;;;;;5072791;28;20041;-72
2022/11/17 01:43:36;;;;;;;18.88;14.93;;;8.30;99.90;;;;;;5073693;28;20127;-72
2022/11/17 01:46:03;;;;;;;23.25;15.18;;;8.20;99.90;;;;;;5072921;28;20047;-72
2022/11/17 01:48:28;;;;;;;20.00;15.98;;;8.30;99.90;;;;;;5072713;28;20097;-72
2022/11/17 01:50:54;;;;;;;19.40;15.50;;;8.20;99.90;;;;;;5072664;28;20040;-72
2022/11/17 01:53:22;;;;;;;20.23;16.45;;;8.40;99.90;;;;;;5071618;28;20036;-72
2022/11/17 01:55:55;;;;;;;20.65;15.13;;;8.30;99.90;;;;;;5073543;28;20447;-72
2022/11/17 01:58:24;;;;;;;19.77;13.98;;;8.30;99.90;;;;;;5072481;28;20032;-72
2022/11/17 02:00:50;;;;;;;19.83;14.57;;;8.20;99.90;;;;;;5072538;28;20048;-72
2022/11/17 02:03:15;;;;;;;20.52;14.18;;;8.20;99.90;;;;;;5073168;28;20044;-72
2022/11/17 02:05:51;;;;;;;20.98;14.23;;;8.20;99.90;;;;;;5072419;28;20037;-72
2022/11/17 02:08:19;;;;;;;18.00;13.63;;;8.30;99.90;;;;;;5072644;28;20139;-72
2022/11/17 02:10:46;;;;;;;18.77;13.95;;;8.30;99.90;;;;;;5073567;28;20033;-72
2022/11/17 02:13:12;;;;;;;19.75;15.05;;;8.30;99.90;;;;;;5072132;28;20044;-72
2022/11/17 02:15:38;;;;;;;19.15;14.52;;;8.40;99.90;;;;;;5072258;28;20474;-72
2022/11/17 02:18:04;;;;;;;19.98;16.67;;;8.40;99.90;;;;;;5073664;28;20123;-72
2022/11/17 02:20:43;;;;;;;17.98;14.63;;;8.30;99.90;;;;;;5072524;28;20752;-72
2022/11/17 02:23:55;;;;;;;17.33;14.27;;;8.30;99.90;;;;;;5071699;28;20123;-71
2022/11/17 02:26:42;;;;;;;17.38;15.15;;;8.20;99.90;;;;;;5072203;28;20048;-72
2022/11/17 02:29:36;;;;;;;20.48;15.80;;;8.40;99.90;;;;;;5072095;28;20494;-72
2022/11/17 02:32:26;;;;;;;20.17;14.13;;;8.40;99.90;;;;;;5071855;28;20096;-72
2022/11/17 02:35:33;;;;;;;25.55;21.20;;;8.40;99.90;;;;;;5071798;28;20051;-72
2022/11/17 02:38:13;;;;;;;37.40;24.80;;;8.30;99.90;;;;;;5054526;28;20053;-72
2022/11/17 02:41:07;;;;;;;36.35;25.02;;;8.40;99.90;;;;;;5071768;28;20044;-72
2022/11/17 02:46:27;;;;;;;33.40;25.83;;;8.20;99.90;;;;;;5071601;28;20056;-72
2022/11/17 02:49:02;;;;;;;36.80;27.40;;;8.40;99.90;;;;;;5071558;28;20501;-72
2022/11/17 02:51:29;;;;;;;38.17;27.75;;;8.50;99.90;;;;;;5071449;28;20041;-72
2022/11/17 02:53:56;;;;;;;41.95;27.73;;;8.40;99.90;;;;;;5071166;28;20043;-72
2022/11/17 02:56:22;;;;;;;37.45;26.63;;;8.20;99.90;;;;;;5071379;28;20067;-72
2022/11/17 02:58:51;;;;;;;34.67;23.90;;;8.40;99.90;;;;;;5071220;28;20571;-71
2022/11/17 03:01:52;;;;;;;32.53;25.17;;;8.50;99.90;;;;;;5072471;28;20040;-72
2022/11/17 03:04:56;;;;;;;34.90;25.33;;;8.30;99.90;;;;;;5029949;28;20045;-72
2022/11/17 03:07:25;;;;;;;;;;;8.20;99.90;;;;;;5071050;28;20047;-72
2022/11/17 03:10:03;;;;;;;27.02;20.20;;;8.30;99.90;;;;;;5072498;28;19916;-72
2022/11/17 03:12:47;;;;;;;34.10;23.38;;;8.30;99.90;;;;;;5072102;28;20044;-72
2022/11/17 03:15:23;;;;;;;33.20;23.52;;;8.20;99.90;;;;;;5071552;28;20055;-72
2022/11/17 03:18:00;;;;;;;23.98;19.60;;;8.10;99.90;;;;;;5071425;28;20041;-72
2022/11/17 03:20:58;;;;;;;32.08;23.25;;;8.30;99.90;;;;;;5071102;28;20059;-72
2022/11/17 03:23:33;;;;;;;37.15;25.58;;;8.30;99.90;;;;;;5071938;28;20128;-72
2022/11/17 03:26:02;;;;;;;38.95;28.10;;;8.30;99.90;;;;;;5072266;28;20070;-73
2022/11/17 03:28:29;;;;;;;42.95;29.55;;;8.00;99.90;;;;;;5070925;28;20522;-73
2022/11/17 03:30:55;;;;;;;42.22;29.45;;;8.20;99.90;;;;;;5070871;28;20038;-74
2022/11/17 03:33:23;;;;;;;45.60;30.50;;;8.00;99.90;;;;;;5070426;28;20051;-73
2022/11/17 03:36:01;;;;;;;43.72;29.38;;;8.20;99.90;;;;;;5071036;28;20403;-73
2022/11/17 03:38:32;;;;;;;45.75;29.60;;;8.00;99.90;;;;;;5070650;28;20044;-73
2022/11/17 03:41:02;;;;;;;34.53;23.75;;;8.20;99.90;;;;;;5072159;28;20059;-72
2022/11/17 03:43:29;;;;;;;31.42;23.48;;;7.90;99.90;;;;;;5070264;28;20056;-73
2022/11/17 03:46:02;;;;;;;35.55;24.08;;;7.80;99.90;;;;;;5070861;28;20045;-73
2022/11/17 03:48:34;;;;;;;33.90;22.48;;;7.90;99.90;;;;;;5070745;28;20048;-73
2022/11/17 03:51:17;;;;;;;23.52;18.13;;;7.90;99.90;;;;;;5071906;28;20050;-73
2022/11/17 03:53:44;;;;;;;17.70;15.43;;;8.10;99.90;;;;;;5070308;28;20076;-73
2022/11/17 03:56:36;;;;;;;19.65;15.05;;;8.00;99.90;;;;;;5070696;28;20052;-73
2022/11/17 03:59:14;;;;;;;24.33;16.30;;;7.80;99.90;;;;;;5071731;28;20122;-73
2022/11/17 04:01:40;;;;;;;22.27;16.42;;;7.70;99.90;;;;;;5071656;28;20048;-73
2022/11/17 04:04:06;;;;;;;25.38;19.58;;;7.90;99.90;;;;;;5053501;28;20043;-73
2022/11/17 04:06:31;;;;;;;25.80;19.25;;;7.60;99.90;;;;;;5070647;28;20044;-73
2022/11/17 04:08:57;;;;;;;22.50;16.48;;;7.70;99.90;;;;;;5071633;28;20514;-74
2022/11/17 04:16:51;;;;;;;21.00;16.02;;;7.70;99.90;;;;;;5069661;28;20156;-73
2022/11/17 04:19:17;;;;;;;20.52;16.08;;;7.80;99.90;;;;;;5053805;28;20036;-73
2022/11/17 04:21:42;;;;;;;20.73;15.82;;;7.70;99.90;;;;;;5070044;28;20509;-73
2022/11/17 04:24:08;;;;;;;20.65;15.90;;;7.80;99.90;;;;;;5069895;28;20062;-74
2022/11/17 04:29:17;;;;;;;19.27;15.48;;;7.60;99.90;;;;;;5071569;28;20090;-74
2022/11/17 04:31:43;;;;;;;19.05;14.25;;;7.60;99.90;;;;;;5070244;28;20448;-73
2022/11/17 04:34:08;;;;;;;19.50;13.93;;;7.50;99.90;;;;;;5070137;28;20832;-73
2022/11/17 04:36:38;;;;;;;16.52;12.95;;;7.50;99.90;;;;;;5070059;28;20033;-73
2022/11/17 04:39:04;;;;;;;17.50;13.45;;;7.70;99.90;;;;;;5070215;28;20029;-74
2022/11/17 04:44:15;;;;;;;17.48;14.48;;;7.80;99.90;;;;;;5071147;28;20041;-73
2022/11/17 04:46:45;;;;;;;21.30;15.50;;;7.60;99.90;;;;;;5070314;28;20040;-73
2022/11/17 04:49:12;;;;;;;18.08;14.82;;;7.50;99.90;;;;;;5069982;28;20549;-73
2022/11/17 04:51:38;;;;;;;20.70;16.52;;;7.60;99.90;;;;;;5053171;28;20036;-73
2022/11/17 04:54:05;;;;;;;22.05;16.88;;;7.50;99.90;;;;;;5071032;28;20051;-74
2022/11/17 04:56:30;;;;;;;21.63;17.13;;;7.40;99.90;;;;;;5070185;28;20162;-73
2022/11/17 04:58:56;;;;;;;22.77;17.75;;;7.50;99.90;;;;;;5070086;28;20048;-73
2022/11/17 05:01:23;;;;;;;23.67;15.68;;;7.40;99.90;;;;;;5069750;28;20044;-73
2022/11/17 05:03:51;;;;;;;20.70;14.25;;;7.50;99.90;;;;;;5069275;28;20036;-74
2022/11/17 05:06:22;;;;;;;17.73;13.85;;;7.20;99.90;;;;;;5065809;28;20033;-74
2022/11/17 05:08:49;;;;;;;17.95;13.65;;;7.50;99.90;;;;;;5090009;28;20050;-73
2022/11/17 05:14:01;;;;;;;18.05;12.77;;;7.20;99.90;;;;;;5089600;28;20055;-73
2022/11/17 05:19:21;;;;;;;16.70;12.40;;;7.50;99.90;;;;;;5091301;28;20127;-74
2022/11/17 05:21:47;;;;;;;16.70;12.02;;;7.40;99.90;;;;;;5089744;28;20051;-75
2022/11/17 05:24:15;;;;;;;14.50;12.35;;;7.30;99.90;;;;;;5089760;28;20457;-74
2022/11/17 05:26:42;;;;;;;14.13;11.38;;;7.20;99.90;;;;;;5090980;28;20028;-74
2022/11/17 05:29:09;;;;;;;13.02;11.43;;;7.20;99.90;;;;;;5091988;28;20036;-74
2022/11/17 05:31:35;;;;;;;16.33;10.85;;;7.40;99.90;;;;;;5093304;28;20039;-74
2022/11/17 05:34:03;;;;;;;14.85;12.20;;;7.40;99.90;;;;;;5094322;28;20032;-74
2022/11/17 05:36:29;;;;;;;15.38;11.07;;;7.40;99.90;;;;;;5094814;28;20661;-74
2022/11/17 05:38:55;;;;;;;14.20;11.52;;;7.30;99.90;;;;;;5094263;28;20036;-74
2022/11/17 05:41:21;;;;;;;14.90;11.32;;;7.30;99.90;;;;;;5092982;28;20036;-73
2022/11/17 05:43:49;;;;;;;16.55;11.85;;;7.10;99.90;;;;;;5092834;28;20497;-73
2022/11/17 05:46:15;;;;;;;14.27;10.15;;;7.40;99.90;;;;;;5093079;28;20036;-73
2022/11/17 05:48:41;;;;;;;13.43;10.95;;;7.20;99.90;;;;;;5094368;28;20442;-74
2022/11/17 05:51:06;;;;;;;14.05;11.93;;;7.30;99.90;;;;;;5093271;28;20040;-73
2022/11/17 05:53:32;;;;;;;14.48;12.65;;;7.30;99.90;;;;;;5092607;28;20040;-73
2022/11/17 05:56:45;;;;;;;19.02;12.25;;;7.20;99.90;;;;;;5092837;28;20131;-73
2022/11/17 05:59:23;;;;;;;17.33;13.75;;;7.00;99.90;;;;;;5048570;28;20104;-74
2022/11/17 06:02:02;;;;;;;14.75;11.95;;;7.20;99.90;;;;;;5092776;28;20044;-73
2022/11/17 06:04:29;;;;;;;12.90;10.95;;;6.90;99.90;;;;;;5093730;28;20386;-74
2022/11/17 06:06:58;;;;;;;13.57;11.52;;;7.30;99.90;;;;;;5092804;28;20076;-74
2022/11/17 06:09:29;;;;;;;13.95;10.25;;;7.30;99.90;;;;;;5092817;28;20035;-74
2022/11/17 06:11:54;;;;;;;12.50;10.05;;;7.30;99.90;;;;;;5092690;28;20075;-74
2022/11/17 06:14:20;;;;;;;13.13;10.05;;;7.20;99.90;;;;;;5092388;28;20098;-74
2022/11/17 06:16:50;;;;;;;14.48;10.55;;;7.20;99.90;;;;;;5092626;28;20508;-75
2022/11/17 06:19:23;;;;;;;11.50;9.43;;;7.30;99.90;;;;;;5092578;28;20043;-75
2022/11/17 06:21:49;;;;;;;;;;;7.00;99.90;;;;;;5094289;28;20040;-74
2022/11/17 06:24:15;;;;;;;11.30;10.02;;;7.00;99.90;;;;;;5092257;28;19923;-74
2022/11/17 06:26:41;;;;;;;11.68;9.70;;;7.10;99.90;;;;;;5092517;28;20043;-74
2022/11/17 06:29:08;;;;;;;12.77;10.07;;;7.20;99.90;;;;;;5092224;28;20085;-74
2022/11/17 06:31:34;;;;;;;12.20;9.70;;;6.90;99.90;;;;;;5092194;28;20040;-74
2022/11/17 06:34:01;;;;;;;12.60;9.30;;;6.90;99.90;;;;;;5091824;28;20054;-74
2022/11/17 06:36:28;;;;;;;12.15;10.02;;;7.20;99.90;;;;;;5093555;28;20036;-74
2022/11/17 06:38:54;;;;;;;12.20;9.35;;;7.20;99.90;;;;;;5092128;28;20074;-74
2022/11/17 06:41:19;;;;;;;13.23;10.32;;;7.20;99.90;;;;;;5091194;28;20110;-74
2022/11/17 06:43:45;;;;;;;11.32;8.60;;;6.90;99.90;;;;;;5091506;28;20405;-74
2022/11/17 06:46:10;;;;;;;11.70;9.25;;;7.20;99.90;;;;;;5091950;28;20040;-74
2022/11/17 06:48:36;;;;;;;12.75;9.90;;;6.90;99.90;;;;;;5091923;28;20032;-74
2022/11/17 06:51:03;;;;;;;11.32;8.98;;;6.80;99.90;;;;;;5091883;28;20121;-74
2022/11/17 06:53:30;;;;;;;10.93;8.88;;;6.80;99.90;;;;;;5091656;28;20040;-74
2022/11/17 06:56:07;;;;;;;10.30;8.95;;;6.90;99.90;;;;;;5091829;28;20040;-73
2022/11/17 06:58:35;;;;;;;11.30;8.73;;;7.20;99.90;;;;;;5091990;28;20073;-74
2022/11/17 07:01:06;;;;;;;12.65;9.00;;;6.90;99.90;;;;;;5091791;28;20482;-75
2022/11/17 07:03:34;;;;;;;13.45;9.40;;;6.80;99.90;;;;;;5091089;28;20146;-74
2022/11/17 07:05:59;;;;;;;13.30;9.45;;;6.80;99.90;;;;;;5091534;28;20051;-74
2022/11/17 07:08:25;;;;;;;11.90;9.38;;;7.00;99.90;;;;;;5091556;28;20032;-74
2022/11/17 07:10:53;;;;;;;12.15;9.02;;;6.90;99.90;;;;;;5091360;28;20120;-74
2022/11/17 07:13:21;;;;;;;10.70;8.57;;;7.10;99.90;;;;;;5091416;28;20040;-74
2022/11/17 07:15:48;;;;;;;10.98;9.30;;;7.10;99.90;;;;;;5091498;28;20675;-74
2022/11/17 07:18:14;;;;;;;12.13;8.70;;;7.10;99.90;;;;;;5091447;28;20036;-74
2022/11/17 07:20:40;;;;;;;11.25;8.35;;;7.10;99.90;;;;;;5091272;28;20044;-74
2022/11/17 07:23:05;;;;;;;10.80;9.52;;;7.10;99.90;;;;;;5090815;28;20089;-74
2022/11/17 07:25:31;;;;;;;15.95;8.95;;;7.10;99.90;;;;;;5091221;28;20723;-74
2022/11/17 07:27:58;;;;;;;11.18;8.70;;;7.10;99.90;;;;;;5091253;28;20112;-74
2022/11/17 07:30:23;;;;;;;12.00;9.73;;;7.10;99.90;;;;;;5091170;28;20032;-74
2022/11/17 07:32:49;;;;;;;11.32;8.45;;;7.00;99.90;;;;;;5090987;28;20131;-74
2022/11/17 07:35:14;;;;;;;14.38;10.07;;;7.20;99.90;;;;;;5090959;28;20036;-74
2022/11/17 07:37:40;;;;;;;12.57;9.20;;;6.90;99.90;;;;;;5091025;28;20036;-74
2022/11/17 07:40:06;;;;;;;12.77;9.20;;;7.10;99.90;;;;;;5091163;28;20071;-74
2022/11/17 07:42:32;;;;;;;12.13;9.32;;;7.10;99.90;;;;;;5090445;28;20040;-74
2022/11/17 07:44:57;;;;;;;12.40;8.60;;;7.10;99.90;;;;;;5092328;28;20371;-74
2022/11/17 07:47:23;;;;;;;13.63;9.43;;;6.80;99.90;;;;;;5092294;28;20047;-73
2022/11/17 07:49:49;;;;;;;10.90;8.10;;;6.90;99.90;;;;;;5091040;28;20059;-74
2022/11/17 07:52:14;;;;;;;13.63;9.43;;;7.20;99.90;;;;;;5090522;28;20047;-74
2022/11/17 07:54:40;;;;;;;14.18;9.55;;;7.00;99.90;;;;;;5090523;28;20039;-74
2022/11/17 07:57:05;;;;;;;11.45;9.32;;;6.90;99.90;;;;;;5090958;28;20043;-74
2022/11/17 07:59:31;;;;;;;10.90;8.13;;;6.80;99.90;;;;;;5091980;28;20043;-74
2022/11/17 08:01:56;;;;;;;11.82;8.77;;;7.00;99.90;;;;;;5090540;28;20043;-74
2022/11/17 08:04:22;;;;;;;12.68;8.88;;;7.10;99.90;;;;;;5090483;28;20044;-74
2022/11/17 08:06:48;;;;;;;11.57;9.57;;;7.00;99.90;;;;;;5090616;28;20036;-74
2022/11/17 08:09:14;;;;;;;13.73;10.02;;;7.10;99.90;;;;;;5090446;28;20040;-74
2022/11/17 08:11:40;;;;;;;14.80;10.13;;;7.10;99.90;;;;;;5091996;28;20110;-74
2022/11/17 08:14:05;;;;;;;15.63;10.20;;;6.80;99.90;;;;;;5091734;28;20089;-74
2022/11/17 08:16:31;;;;;;;13.38;8.15;;;7.10;99.90;;;;;;5090494;28;20044;-74
2022/11/17 08:18:57;;;;;;;11.05;7.97;;;6.80;99.90;;;;;;5090612;28;20118;-74
2022/11/17 08:21:23;;;;;;;16.58;10.35;;;6.90;99.90;;;;;;5090530;28;20036;-74
2022/11/17 08:23:51;;;;;;;14.75;10.43;;;7.20;99.90;;;;;;5090015;28;20043;-74
2022/11/17 08:26:16;;;;;;;12.50;9.82;;;7.20;99.90;;;;;;5090451;28;20534;-74
2022/11/17 08:28:42;;;;;;;15.32;10.40;;;7.10;99.90;;;;;;5090485;28;20040;-74
2022/11/17 08:31:07;;;;;;;14.57;10.70;;;7.20;99.90;;;;;;5091656;28;20051;-74
2022/11/17 08:33:33;;;;;;;15.07;10.00;;;7.00;99.90;;;;;;5090015;28;20040;-74
2022/11/17 08:36:00;;;;;;;16.27;10.80;;;6.90;99.90;;;;;;5091614;28;20046;-73
2022/11/17 08:38:27;;;;;;;13.02;10.75;;;7.10;99.90;;;;;;5091534;28;20524;-73
2022/11/17 08:40:57;;;;;;;14.15;11.15;;;7.20;99.90;;;;;;5090359;28;20107;-73
2022/11/17 08:43:23;;;;;;;14.52;10.15;;;7.20;99.90;;;;;;5081396;28;20029;-73
2022/11/17 08:45:49;;;;;;;13.82;10.25;;;7.00;99.90;;;;;;5080378;28;20085;-73
2022/11/17 08:48:14;;;;;;;12.43;10.23;;;7.10;99.90;;;;;;5084115;28;20032;-73
2022/11/17 08:50:40;;;;;;;14.70;11.48;;;7.10;99.90;;;;;;5090028;28;20032;-73
2022/11/17 08:53:10;;;;;;;16.38;11.40;;;7.30;99.90;;;;;;5091021;28;20409;-72
2022/11/17 08:55:37;;;;;;;14.75;11.57;;;7.00;99.90;;;;;;5091433;28;20047;-73
2022/11/17 08:58:03;;;;;;;17.08;12.77;;;7.10;99.90;;;;;;5090160;28;20044;-73
2022/11/17 09:00:28;;;;;;;17.45;12.40;;;7.30;99.90;;;;;;5090063;28;20521;-73
2022/11/17 09:02:54;;;;;;;16.48;11.27;;;7.00;99.90;;;;;;5089945;28;20043;-73
2022/11/17 09:05:19;;;;;;;17.48;11.10;;;7.10;99.90;;;;;;5076905;28;20521;-73
2022/11/17 09:07:45;;;;;;;18.65;11.43;;;7.30;99.90;;;;;;5094021;28;20046;-73
2022/11/17 09:10:11;;;;;;;16.05;12.02;;;7.20;99.90;;;;;;5093959;28;20032;-74
2022/11/17 09:12:36;;;;;;;15.98;11.48;;;7.30;99.90;;;;;;5094957;28;20072;-73
2022/11/17 09:15:03;;;;;;;15.65;11.00;;;7.30;99.90;;;;;;5077220;28;20070;-74
2022/11/17 09:17:30;;;;;;;12.02;10.10;;;7.00;99.90;;;;;;5093841;28;20468;-73
2022/11/17 09:19:55;;;;;;;13.13;9.95;;;7.00;99.90;;;;;;5093595;28;20089;-74
2022/11/17 09:22:21;;;;;;;12.77;9.98;;;7.00;99.90;;;;;;5093539;28;20048;-74
2022/11/17 09:24:47;;;;;;;11.98;9.75;;;7.30;99.90;;;;;;5093680;28;20035;-74
2022/11/17 09:27:12;;;;;;;13.18;9.70;;;7.20;99.90;;;;;;5093628;28;20565;-74
2022/11/17 09:29:38;;;;;;;11.68;8.77;;;7.10;99.90;;;;;;5091032;28;20119;-73
2022/11/17 09:32:04;;;;;;;11.57;9.30;;;7.40;99.90;;;;;;5081166;28;20051;-74
2022/11/17 09:34:30;;;;;;;12.25;9.55;;;7.10;99.90;;;;;;5081861;28;20044;-74
2022/11/17 09:36:55;;;;;;;10.88;8.88;;;7.20;99.90;;;;;;5093469;28;20047;-74
2022/11/17 09:39:21;;;;;;;10.70;7.50;;;7.20;99.90;;;;;;5094852;28;20486;-73
2022/11/17 09:41:53;;;;;;;9.52;6.50;;;7.10;99.90;;;;;;5093224;28;20036;-74
2022/11/17 09:44:40;;;;;;;10.93;8.13;;;7.30;99.90;;;;;;5092911;28;20039;-74
2022/11/17 09:47:36;;;;;;;13.20;8.52;;;7.00;99.90;;;;;;5093237;28;20498;-73
2022/11/17 09:50:18;;;;;;;9.82;7.53;;;7.00;99.90;;;;;;5093208;28;20517;-74
2022/11/17 09:53:22;;;;;;;8.80;7.53;;;7.20;99.90;;;;;;5092767;28;20097;-75
2022/11/17 09:55:52;;;;;;;8.67;7.37;;;7.20;99.90;;;;;;5093235;28;20593;-73
2022/11/17 09:58:30;;;;;;;9.75;7.78;;;7.00;99.90;;;;;;5093225;28;20040;-73
2022/11/17 10:00:56;;;;;;;13.98;9.55;;;7.20;99.90;;;;;;5092926;28;20044;-74
2022/11/17 10:03:27;;;;;;;10.38;8.60;;;7.30;99.90;;;;;;5092226;28;20036;-73
2022/11/17 10:05:54;;;;;;;11.27;8.20;;;7.20;99.90;;;;;;5075964;28;20034;-74
2022/11/17 10:08:34;;;;;;;12.55;9.95;;;7.20;99.90;;;;;;5092930;28;20711;-74
2022/11/17 10:11:30;;;;;;;14.73;11.30;;;7.00;99.90;;;;;;5092851;28;20047;-74
2022/11/17 10:13:48;;;;;;;13.38;11.20;;;7.30;99.90;;;;;;5086315;28;20106;-74
2022/11/17 10:16:14;;;;;;;14.35;10.50;;;7.00;99.90;;;;;;5091542;28;20048;-74
2022/11/17 10:18:39;;;;;;;12.95;10.32;;;7.20;99.90;;;;;;5092591;28;20044;-74
2022/11/17 10:21:07;;;;;;;16.33;10.77;;;7.10;99.90;;;;;;5092862;28;20379;-74
2022/11/17 10:23:39;;;;;;;13.02;9.25;;;7.10;99.90;;;;;;5092171;28;20036;-75
2022/11/17 10:26:12;;;;;;;12.18;8.20;;;7.00;99.90;;;;;;5092589;28;20119;-74
2022/11/17 10:28:37;;;;;;;11.88;8.90;;;7.30;99.90;;;;;;5092590;28;20127;-74
2022/11/17 10:31:11;;;;;;;10.63;8.60;;;7.00;99.90;;;;;;5093682;28;20111;-74
2022/11/17 10:33:38;;;;;;;;;;;7.20;99.90;;;;;;5092643;28;20040;-74
2022/11/17 10:36:12;;;;;;;11.85;8.52;;;7.00;99.90;;;;;;5092267;28;20430;-74
2022/11/17 10:38:44;;;;;;;9.63;7.10;;;6.90;99.90;;;;;;5092724;28;20049;-74
2022/11/17 10:41:15;;;;;;;9.07;7.35;;;7.20;99.90;;;;;;5092248;28;20578;-75
2022/11/17 10:43:52;;;;;;;9.95;7.78;;;7.20;99.90;;;;;;5074939;28;20127;-74
2022/11/17 10:46:17;;;;;;;9.18;6.78;;;7.10;99.90;;;;;;5093338;28;20047;-74
2022/11/17 10:49:05;;;;;;;10.40;7.57;;;6.80;99.90;;;;;;5091941;28;20036;-74
2022/11/17 10:51:32;;;;;;;9.43;7.20;;;7.20;99.90;;;;;;5074957;28;20043;-72
2022/11/17 10:54:15;;;;;;;11.10;8.63;;;7.20;99.90;;;;;;5091555;28;20032;-74
2022/11/17 10:56:44;;;;;;;9.27;7.55;;;6.90;99.90;;;;;;5091965;28;20101;-73
2022/11/17 10:59:17;;;;;;;9.32;6.95;;;7.10;99.90;;;;;;5091671;28;20040;-73
2022/11/17 11:01:46;;;;;;;9.35;7.70;;;7.20;99.90;;;;;;5091816;28;20039;-74
2022/11/17 11:04:35;;;;;;;10.07;8.18;;;6.80;99.90;;;;;;5091481;28;20032;-72
2022/11/17 11:07:12;;;;;;;9.68;7.68;;;7.00;99.90;;;;;;5081979;28;20047;-73
2022/11/17 11:10:03;;;;;;;11.07;8.30;;;7.20;99.90;;;;;;5085228;28;20032;-74
2022/11/17 11:12:44;;;;;;;10.75;7.72;;;7.10;99.90;;;;;;5088682;28;20079;-72
2022/11/17 11:15:17;;;;;;;11.18;8.68;;;7.10;99.90;;;;;;5082224;28;20055;-72
2022/11/17 11:17:43;;;;;;;12.07;8.63;;;6.90;99.90;;;;;;5081987;28;20169;-72
2022/11/17 11:20:13;;;;;;;11.13;8.82;;;7.20;99.90;;;;;;5080623;28;20119;-73
2022/11/17 11:23:07;;;;;;;11.27;8.63;;;7.30;99.90;;;;;;5079371;28;20053;-73
2022/11/17 11:25:32;;;;;;;;;;;6.90;99.90;;;;;;5082079;28;20036;-73
2022/11/17 11:28:30;;;;;;;11.32;8.73;;;6.90;99.90;;;;;;5081889;28;20378;-73
2022/11/17 11:31:05;;;;;;;11.23;8.80;;;7.20;99.90;;;;;;5082333;28;20546;-73
2022/11/17 11:33:49;;;;;;;11.52;9.13;;;6.90;99.90;;;;;;5077306;28;20044;-73
2022/11/17 11:36:34;;;;;;;13.20;9.45;;;7.00;99.90;;;;;;5072201;28;20120;-73
2022/11/17 11:39:15;;;;;;;14.60;10.82;;;7.00;99.90;;;;;;5070834;28;20391;-73
2022/11/17 11:41:59;;;;;;;12.70;9.80;;;7.20;99.90;;;;;;5070901;28;20032;-73
2022/11/17 11:44:33;;;;;;;11.05;9.05;;;7.20;99.90;;;;;;5070555;28;20131;-73
2022/11/17 11:47:43;;;;;;;13.38;9.45;;;6.80;99.90;;;;;;5071080;28;20079;-73
2022/11/17 11:50:12;;;;;;;14.18;10.07;;;6.90;99.90;;;;;;5070681;28;20072;-73
2022/11/17 11:52:45;;;;;;;11.90;9.98;;;6.90;99.90;;;;;;5070282;28;20068;-72
2022/11/17 11:55:20;;;;;;;11.90;9.60;;;7.10;99.90;;;;;;5072014;28;20040;-72
2022/11/17 11:57:54;;;;;;;13.27;9.43;;;7.20;99.90;;;;;;5070702;28;20033;-73
2022/11/17 12:00:19;;;;;;;11.88;8.70;;;7.10;99.90;;;;;;5070504;28;20043;-72
2022/11/17 12:03:11;;;;;;;11.88;8.43;;;7.20;99.90;;;;;;5070015;28;20049;-73
2022/11/17 12:05:48;;;;;;;11.57;9.35;;;7.00;99.90;;;;;;5070681;28;20040;-73
2022/11/17 12:08:31;;;;;;;14.35;10.00;;;7.20;99.90;;;;;;5071005;28;20090;-73
2022/11/17 12:11:58;;;;;;;13.02;9.32;;;7.40;99.90;;;;;;5086835;28;20032;-73
2022/11/17 12:13:47;;;;;;;14.63;9.95;;;7.30;99.90;;;;;;5078625;28;20485;-73
2022/11/17 12:16:34;;;;;;;12.85;9.80;;;7.30;99.90;;;;;;5083887;28;20036;-72
2022/11/17 12:19:00;;;;;;;10.98;8.60;;;7.00;99.90;;;;;;5079212;28;20114;-73
2022/11/17 12:21:27;;;;;;;12.10;9.43;;;7.00;99.90;;;;;;5082021;28;20112;-72
2022/11/17 12:24:00;;;;;;;15.43;10.85;;;7.10;99.90;;;;;;5076919;28;20041;-73
2022/11/17 12:26:27;;;;;;;;;;;7.20;99.90;;;;;;5072285;28;20040;-73
2022/11/17 12:29:19;;;;;;;12.65;9.15;;;7.00;99.90;;;;;;5088466;28;20416;-72
2022/11/17 12:31:50;;;;;;;11.65;8.95;;;7.20;99.90;;;;;;5086626;28;20126;-73
2022/11/17 12:34:36;;;;;;;11.80;8.70;;;7.30;99.90;;;;;;5090120;28;20413;-72
2022/11/17 12:37:25;;;;;;;11.80;8.73;;;7.10;99.90;;;;;;5091307;28;20125;-73
2022/11/17 12:40:08;;;;;;;12.02;9.45;;;7.20;99.90;;;;;;5085793;28;20090;-74
2022/11/17 12:42:35;;;;;;;11.52;8.93;;;7.00;99.90;;;;;;5084792;28;20412;-74
2022/11/17 12:45:02;;;;;;;13.73;9.05;;;7.20;99.90;;;;;;5074347;28;20165;-73
2022/11/17 12:47:34;;;;;;;13.05;9.48;;;7.10;99.90;;;;;;5094401;28;20595;-74
2022/11/17 12:50:17;;;;;;;14.95;10.35;;;7.30;99.90;;;;;;5094757;28;20036;-74
2022/11/17 12:52:55;;;;;;;15.35;11.15;;;7.30;99.90;;;;;;5093996;28;20040;-73
2022/11/17 12:55:30;;;;;;;14.93;11.07;;;7.50;99.90;;;;;;5087656;28;20043;-73
2022/11/17 12:58:25;;;;;;;13.00;9.57;;;7.40;99.90;;;;;;5074269;28;20504;-73
2022/11/17 13:00:53;;;;;;;14.35;10.43;;;7.40;99.90;;;;;;5064888;28;20109;-73
2022/11/17 13:03:38;;;;;;;11.65;9.13;;;7.30;99.90;;;;;;5078247;28;20047;-74
2022/11/17 13:06:13;;;;;;;10.40;7.88;;;7.40;99.90;;;;;;5080555;28;20037;-70
2022/11/17 13:08:38;;;;;;;10.32;7.80;;;7.20;99.90;;;;;;5074050;28;20406;-73
2022/11/17 13:11:16;;;;;;;10.18;7.68;;;7.20;99.90;;;;;;5073598;28;20051;-73
2022/11/17 13:13:41;;;;;;;9.60;8.38;;;7.20;99.90;;;;;;5074740;28;20052;-73
2022/11/17 13:16:17;;;;;;;12.40;9.68;;;7.20;99.90;;;;;;5073814;28;20049;-73
2022/11/17 13:18:44;;;;;;;13.20;9.80;;;7.50;99.90;;;;;;5073787;28;20418;-73
2022/11/17 13:21:24;;;;;;;13.63;10.15;;;7.40;99.90;;;;;;5073756;28;20055;-72
2022/11/17 13:23:51;;;;;;;16.88;11.10;;;7.60;99.90;;;;;;5072925;28;20129;-73
2022/11/17 13:26:21;;;;;;;14.32;10.23;;;7.30;99.90;;;;;;5073328;28;20051;-73
2022/11/17 13:29:00;;;;;;;12.75;10.13;;;7.60;99.90;;;;;;5073543;28;20372;-73
2022/11/17 13:31:25;;;;;;;12.40;10.55;;;7.60;99.90;;;;;;5073281;28;20044;-74
2022/11/17 13:34:00;;;;;;;12.85;9.85;;;7.50;99.90;;;;;;5074213;28;20058;-73
2022/11/17 13:36:26;;;;;;;11.00;8.27;;;7.40;99.90;;;;;;5073110;28;20524;-74
2022/11/17 13:38:56;;;;;;;11.77;9.80;;;7.30;99.90;;;;;;5073442;28;20052;-73